EZY61HD EGAA-EGGW
Flight info
| Callsign | EZY61HD |
|---|---|
| Flight time | 0h 58m |
| Altitude | 33000 |
| Route | LISBO DCT RINGA DCT BABGU DCT ETIGA DCT INKOB Q39 NOMSU UQ4 LISTO |
| Aircraft | A320/M-SDE2E3FGHIRWXY/LB1 |
Departure
| Time | 2026-05-06 14:53 |
|---|---|
| Airport | Belfast International Airport (EGAA) |
Arrival
| Time | 2026-05-06 15:51 |
|---|---|
| Airport | London Luton Airport (EGGW) |
| Time | Latitude | Longitude | Altitude | Speed | Heading |
|---|---|---|---|---|---|
| 2026-05-06 14:23 | 54.66109 | -6.21354 | 275 ft | 0 kts | 245° |
| 2026-05-06 14:25 | 54.66110 | -6.21354 | 275 ft | 0 kts | 245° |
| 2026-05-06 14:28 | 54.66110 | -6.21353 | 275 ft | 0 kts | 245° |
| 2026-05-06 14:43 | 54.66116 | -6.21331 | 272 ft | 4 kts | 239° |
| 2026-05-06 14:43 | 54.66132 | -6.21296 | 278 ft | 4 kts | 212° |
| 2026-05-06 14:43 | 54.66154 | -6.21285 | 272 ft | 2 kts | 156° |
| 2026-05-06 14:43 | 54.66160 | -6.21289 | 274 ft | 0 kts | 155° |
| 2026-05-06 14:46 | 54.66156 | -6.21286 | 273 ft | 0 kts | 155° |
| 2026-05-06 14:46 | 54.66141 | -6.21274 | 272 ft | 5 kts | 155° |
| 2026-05-06 14:46 | 54.66103 | -6.21243 | 273 ft | 0 kts | 155° |
| 2026-05-06 14:46 | 54.66102 | -6.21242 | 273 ft | 0 kts | 155° |
| 2026-05-06 14:47 | 54.66083 | -6.21227 | 273 ft | 6 kts | 155° |
| 2026-05-06 14:47 | 54.66060 | -6.21145 | 272 ft | 11 kts | 81° |
| 2026-05-06 14:47 | 54.66082 | -6.21028 | 272 ft | 12 kts | 67° |
| 2026-05-06 14:47 | 54.66130 | -6.20876 | 272 ft | 16 kts | 44° |
| 2026-05-06 14:48 | 54.66179 | -6.20682 | 272 ft | 20 kts | 66° |
| 2026-05-06 14:48 | 54.66234 | -6.20465 | 272 ft | 20 kts | 65° |
| 2026-05-06 14:48 | 54.66293 | -6.20242 | 272 ft | 21 kts | 65° |
| 2026-05-06 14:48 | 54.66349 | -6.20041 | 272 ft | 17 kts | 65° |
| 2026-05-06 14:49 | 54.66393 | -6.19853 | 272 ft | 16 kts | 85° |
| 2026-05-06 14:49 | 54.66376 | -6.19752 | 274 ft | 5 kts | 172° |
| 2026-05-06 14:49 | 54.66373 | -6.19752 | 273 ft | 0 kts | 174° |
| 2026-05-06 14:49 | 54.66372 | -6.19746 | 273 ft | 0 kts | 134° |
| 2026-05-06 14:50 | 54.66364 | -6.19725 | 272 ft | 0 kts | 131° |
| 2026-05-06 14:50 | 54.66361 | -6.19721 | 272 ft | 2 kts | 134° |
| 2026-05-06 14:50 | 54.66335 | -6.19692 | 272 ft | 7 kts | 153° |
| 2026-05-06 14:50 | 54.66289 | -6.19658 | 272 ft | 6 kts | 158° |
| 2026-05-06 14:51 | 54.66260 | -6.19695 | 272 ft | 4 kts | 238° |
| 2026-05-06 14:51 | 54.66253 | -6.19711 | 272 ft | 0 kts | 236° |
| 2026-05-06 14:52 | 54.66247 | -6.19735 | 274 ft | 13 kts | 245° |
| 2026-05-06 14:52 | 54.66088 | -6.20321 | 272 ft | 90 kts | 246° |
| 2026-05-06 14:52 | 54.65738 | -6.21626 | 272 ft | 147 kts | 244° |
| 2026-05-06 14:52 | 54.65261 | -6.23364 | 653 ft | 160 kts | 243° |
| 2026-05-06 14:53 | 54.64825 | -6.25079 | 1487 ft | 155 kts | 243° |
| 2026-05-06 14:53 | 54.64405 | -6.26934 | 1837 ft | 176 kts | 242° |
| 2026-05-06 14:53 | 54.63874 | -6.28990 | 2176 ft | 200 kts | 242° |
| 2026-05-06 14:53 | 54.63259 | -6.31302 | 2581 ft | 224 kts | 239° |
| 2026-05-06 14:54 | 54.62245 | -6.33440 | 2990 ft | 240 kts | 212° |
| 2026-05-06 14:54 | 54.60689 | -6.34523 | 3736 ft | 246 kts | 186° |
| 2026-05-06 14:54 | 54.58997 | -6.34153 | 4611 ft | 252 kts | 158° |
| 2026-05-06 14:54 | 54.57612 | -6.32279 | 5442 ft | 261 kts | 127° |
| 2026-05-06 14:55 | 54.56821 | -6.29418 | 6296 ft | 268 kts | 114° |
| 2026-05-06 14:55 | 54.56129 | -6.26405 | 7081 ft | 273 kts | 114° |
| 2026-05-06 14:55 | 54.55425 | -6.23317 | 7837 ft | 280 kts | 113° |
| 2026-05-06 14:55 | 54.54704 | -6.20163 | 8582 ft | 287 kts | 113° |
| 2026-05-06 14:56 | 54.53959 | -6.16924 | 9149 ft | 293 kts | 113° |
| 2026-05-06 14:56 | 54.53200 | -6.13637 | 9969 ft | 298 kts | 112° |
| 2026-05-06 14:56 | 54.52415 | -6.10263 | 10463 ft | 313 kts | 113° |
| 2026-05-06 14:56 | 54.51571 | -6.06661 | 10709 ft | 335 kts | 113° |
| 2026-05-06 14:57 | 54.50685 | -6.02888 | 11289 ft | 343 kts | 113° |
| 2026-05-06 14:57 | 54.49785 | -5.99053 | 11995 ft | 348 kts | 113° |
| 2026-05-06 14:57 | 54.48872 | -5.95164 | 12711 ft | 353 kts | 113° |
| 2026-05-06 14:57 | 54.47946 | -5.91236 | 13429 ft | 357 kts | 113° |
| 2026-05-06 14:58 | 54.47008 | -5.87259 | 14106 ft | 361 kts | 113° |
| 2026-05-06 14:58 | 54.46058 | -5.83242 | 14746 ft | 364 kts | 113° |
| 2026-05-06 14:58 | 54.45100 | -5.79198 | 15378 ft | 367 kts | 113° |
| 2026-05-06 14:58 | 54.44130 | -5.75111 | 15991 ft | 371 kts | 113° |
| 2026-05-06 14:59 | 54.43147 | -5.70985 | 16594 ft | 375 kts | 113° |
| 2026-05-06 14:59 | 54.42154 | -5.66820 | 17208 ft | 379 kts | 113° |
| 2026-05-06 14:59 | 54.41153 | -5.62614 | 17803 ft | 383 kts | 113° |
| 2026-05-06 14:59 | 54.40119 | -5.58374 | 18389 ft | 386 kts | 117° |
| 2026-05-06 15:00 | 54.38763 | -5.54395 | 18898 ft | 388 kts | 126° |
| 2026-05-06 15:00 | 54.37214 | -5.50576 | 19448 ft | 391 kts | 126° |
| 2026-05-06 15:00 | 54.35651 | -5.46733 | 19972 ft | 395 kts | 126° |
| 2026-05-06 15:00 | 54.34072 | -5.42859 | 20496 ft | 398 kts | 126° |
| 2026-05-06 15:01 | 54.32481 | -5.38963 | 21024 ft | 401 kts | 126° |
| 2026-05-06 15:01 | 54.30875 | -5.35033 | 21538 ft | 404 kts | 126° |
| 2026-05-06 15:01 | 54.29258 | -5.31070 | 22050 ft | 408 kts | 126° |
| 2026-05-06 15:01 | 54.27623 | -5.27077 | 22553 ft | 411 kts | 126° |
| 2026-05-06 15:02 | 54.25921 | -5.23203 | 23060 ft | 414 kts | 129° |
| 2026-05-06 15:02 | 54.24083 | -5.19303 | 23562 ft | 418 kts | 130° |
| 2026-05-06 15:02 | 54.22852 | -5.16787 | 23844 ft | 420 kts | 130° |
| 2026-05-06 15:02 | 54.20955 | -5.12972 | 24256 ft | 422 kts | 131° |
| 2026-05-06 15:03 | 54.18395 | -5.07829 | 24798 ft | 426 kts | 130° |
| 2026-05-06 15:03 | 54.16512 | -5.04001 | 25191 ft | 428 kts | 130° |
| 2026-05-06 15:03 | 54.14603 | -5.00085 | 25579 ft | 430 kts | 130° |
| 2026-05-06 15:03 | 54.12697 | -4.96143 | 25958 ft | 433 kts | 129° |
| 2026-05-06 15:04 | 54.10781 | -4.92165 | 26335 ft | 435 kts | 129° |
| 2026-05-06 15:04 | 54.08860 | -4.88181 | 26700 ft | 437 kts | 129° |
| 2026-05-06 15:04 | 54.06916 | -4.84178 | 27064 ft | 439 kts | 130° |
| 2026-05-06 15:04 | 54.04959 | -4.80172 | 27427 ft | 441 kts | 130° |
| 2026-05-06 15:05 | 54.03664 | -4.77497 | 27660 ft | 443 kts | 129° |
| 2026-05-06 15:05 | 54.01119 | -4.71958 | 28124 ft | 446 kts | 127° |
| 2026-05-06 15:05 | 53.99889 | -4.69174 | 28330 ft | 447 kts | 126° |
| 2026-05-06 15:05 | 53.98024 | -4.64894 | 28672 ft | 450 kts | 126° |
| 2026-05-06 15:06 | 53.96162 | -4.60620 | 29002 ft | 452 kts | 126° |
| 2026-05-06 15:06 | 53.94281 | -4.56337 | 29324 ft | 454 kts | 127° |
| 2026-05-06 15:06 | 53.92377 | -4.52046 | 29634 ft | 456 kts | 127° |
| 2026-05-06 15:06 | 53.90455 | -4.47763 | 29943 ft | 457 kts | 127° |
| 2026-05-06 15:07 | 53.88515 | -4.43472 | 30226 ft | 459 kts | 127° |
| 2026-05-06 15:07 | 53.86571 | -4.39168 | 30474 ft | 461 kts | 127° |
| 2026-05-06 15:07 | 53.84679 | -4.34780 | 30715 ft | 462 kts | 125° |
| 2026-05-06 15:07 | 53.82840 | -4.30309 | 30951 ft | 464 kts | 124° |
| 2026-05-06 15:08 | 53.81031 | -4.25779 | 31175 ft | 465 kts | 124° |
| 2026-05-06 15:08 | 53.79230 | -4.21238 | 31499 ft | 464 kts | 124° |
| 2026-05-06 15:08 | 53.77429 | -4.16732 | 31823 ft | 463 kts | 124° |
| 2026-05-06 15:08 | 53.75614 | -4.12253 | 32140 ft | 463 kts | 124° |
| 2026-05-06 15:09 | 53.73786 | -4.07800 | 32458 ft | 462 kts | 125° |
| 2026-05-06 15:09 | 53.71939 | -4.03345 | 32765 ft | 462 kts | 125° |
| 2026-05-06 15:09 | 53.70092 | -3.98912 | 32993 ft | 462 kts | 125° |
| 2026-05-06 15:10 | 53.66487 | -3.90265 | 33032 ft | 446 kts | 125° |
| 2026-05-06 15:10 | 53.62922 | -3.81694 | 33027 ft | 443 kts | 125° |
| 2026-05-06 15:11 | 53.59365 | -3.73173 | 33032 ft | 443 kts | 126° |
| 2026-05-06 15:11 | 53.55813 | -3.64711 | 33030 ft | 443 kts | 126° |
| 2026-05-06 15:12 | 53.52285 | -3.56322 | 33028 ft | 442 kts | 126° |
| 2026-05-06 15:12 | 53.48722 | -3.47910 | 33028 ft | 442 kts | 126° |
| 2026-05-06 15:13 | 53.45700 | -3.38956 | 33025 ft | 442 kts | 113° |
| 2026-05-06 15:13 | 53.43306 | -3.29443 | 33018 ft | 442 kts | 113° |
| 2026-05-06 15:14 | 53.40876 | -3.19968 | 33022 ft | 442 kts | 114° |
| 2026-05-06 15:14 | 53.38454 | -3.10490 | 33018 ft | 442 kts | 112° |
| 2026-05-06 15:15 | 53.36265 | -3.00855 | 33016 ft | 443 kts | 110° |
| 2026-05-06 15:15 | 53.34182 | -2.91161 | 33021 ft | 443 kts | 110° |
| 2026-05-06 15:16 | 53.32047 | -2.81500 | 33020 ft | 443 kts | 111° |
| 2026-05-06 15:16 | 53.29766 | -2.71952 | 33019 ft | 442 kts | 117° |
| 2026-05-06 15:17 | 53.27032 | -2.62756 | 33012 ft | 442 kts | 117° |
| 2026-05-06 15:17 | 53.24328 | -2.53544 | 33011 ft | 442 kts | 117° |
| 2026-05-06 15:18 | 53.21616 | -2.44342 | 33017 ft | 442 kts | 118° |
| 2026-05-06 15:18 | 53.18890 | -2.35162 | 33018 ft | 442 kts | 118° |
| 2026-05-06 15:19 | 53.16141 | -2.26000 | 33021 ft | 441 kts | 121° |
| 2026-05-06 15:19 | 53.12523 | -2.18061 | 33019 ft | 436 kts | 139° |
| 2026-05-06 15:20 | 53.07791 | -2.11952 | 33021 ft | 433 kts | 147° |
| 2026-05-06 15:20 | 53.02926 | -2.06046 | 33020 ft | 433 kts | 147° |
| 2026-05-06 15:20 | 53.00501 | -2.03087 | 32906 ft | 431 kts | 146° |
| 2026-05-06 15:21 | 52.98108 | -2.00166 | 32628 ft | 423 kts | 147° |
| 2026-05-06 15:21 | 52.95747 | -1.97292 | 32361 ft | 419 kts | 147° |
| 2026-05-06 15:21 | 52.93405 | -1.94454 | 32092 ft | 416 kts | 147° |
| 2026-05-06 15:21 | 52.91072 | -1.91638 | 31814 ft | 412 kts | 147° |
| 2026-05-06 15:22 | 52.88766 | -1.88861 | 31342 ft | 409 kts | 147° |
| 2026-05-06 15:22 | 52.86469 | -1.86101 | 30852 ft | 407 kts | 147° |
| 2026-05-06 15:22 | 52.84185 | -1.83360 | 30386 ft | 404 kts | 147° |
| 2026-05-06 15:22 | 52.81914 | -1.80640 | 29887 ft | 402 kts | 147° |
| 2026-05-06 15:23 | 52.79660 | -1.77943 | 29423 ft | 398 kts | 147° |
| 2026-05-06 15:23 | 52.77428 | -1.75270 | 28971 ft | 394 kts | 147° |
| 2026-05-06 15:23 | 52.75217 | -1.72638 | 28554 ft | 389 kts | 149° |
| 2026-05-06 15:23 | 52.72902 | -1.70416 | 28144 ft | 382 kts | 155° |
| 2026-05-06 15:24 | 52.70561 | -1.68396 | 27738 ft | 378 kts | 155° |
| 2026-05-06 15:24 | 52.68240 | -1.66401 | 27335 ft | 374 kts | 155° |
| 2026-05-06 15:24 | 52.65941 | -1.64429 | 26926 ft | 371 kts | 155° |
| 2026-05-06 15:24 | 52.63666 | -1.62479 | 26524 ft | 367 kts | 155° |
| 2026-05-06 15:25 | 52.61407 | -1.60545 | 26118 ft | 364 kts | 155° |
| 2026-05-06 15:25 | 52.59174 | -1.58635 | 25708 ft | 361 kts | 155° |
| 2026-05-06 15:25 | 52.56954 | -1.56736 | 25291 ft | 359 kts | 155° |
| 2026-05-06 15:25 | 52.54745 | -1.54847 | 24880 ft | 356 kts | 155° |
| 2026-05-06 15:26 | 52.52549 | -1.52974 | 24454 ft | 355 kts | 155° |
| 2026-05-06 15:26 | 52.50362 | -1.51109 | 24026 ft | 353 kts | 155° |
| 2026-05-06 15:26 | 52.48184 | -1.49251 | 23615 ft | 352 kts | 155° |
| 2026-05-06 15:26 | 52.46014 | -1.47400 | 23148 ft | 351 kts | 155° |
| 2026-05-06 15:27 | 52.43858 | -1.45563 | 22727 ft | 348 kts | 155° |
| 2026-05-06 15:27 | 52.41717 | -1.43744 | 22310 ft | 345 kts | 155° |
| 2026-05-06 15:27 | 52.39591 | -1.41943 | 21904 ft | 343 kts | 155° |
| 2026-05-06 15:27 | 52.37476 | -1.40153 | 21512 ft | 341 kts | 155° |
| 2026-05-06 15:28 | 52.35376 | -1.38372 | 21105 ft | 339 kts | 154° |
| 2026-05-06 15:28 | 52.33286 | -1.36600 | 20707 ft | 338 kts | 154° |
| 2026-05-06 15:28 | 52.31203 | -1.34842 | 20317 ft | 336 kts | 154° |
| 2026-05-06 15:28 | 52.29121 | -1.33077 | 20052 ft | 340 kts | 154° |
| 2026-05-06 15:29 | 52.27036 | -1.31200 | 20023 ft | 344 kts | 152° |
| 2026-05-06 15:29 | 52.24957 | -1.29236 | 20029 ft | 346 kts | 151° |
| 2026-05-06 15:29 | 52.22885 | -1.27241 | 19990 ft | 346 kts | 151° |
| 2026-05-06 15:29 | 52.20791 | -1.25222 | 19205 ft | 356 kts | 151° |
| 2026-05-06 15:30 | 52.18635 | -1.23156 | 18576 ft | 362 kts | 151° |
| 2026-05-06 15:30 | 52.16466 | -1.21094 | 18100 ft | 361 kts | 151° |
| 2026-05-06 15:30 | 52.14293 | -1.19044 | 17628 ft | 359 kts | 151° |
| 2026-05-06 15:30 | 52.12164 | -1.17044 | 17188 ft | 357 kts | 151° |
| 2026-05-06 15:31 | 52.10015 | -1.15032 | 16718 ft | 356 kts | 151° |
| 2026-05-06 15:31 | 52.07880 | -1.13045 | 16330 ft | 353 kts | 152° |
| 2026-05-06 15:31 | 52.05754 | -1.11071 | 15950 ft | 350 kts | 151° |
| 2026-05-06 15:32 | 52.01876 | -1.06496 | 15221 ft | 345 kts | 128° |
| 2026-05-06 15:32 | 52.00686 | -1.03161 | 14884 ft | 341 kts | 109° |
| 2026-05-06 15:32 | 52.00195 | -0.99456 | 14660 ft | 333 kts | 91° |
| 2026-05-06 15:32 | 52.00340 | -0.95758 | 14414 ft | 326 kts | 82° |
| 2026-05-06 15:33 | 52.00606 | -0.92132 | 14171 ft | 321 kts | 82° |
| 2026-05-06 15:33 | 52.00869 | -0.88551 | 13933 ft | 319 kts | 82° |
| 2026-05-06 15:33 | 52.01129 | -0.84988 | 13686 ft | 317 kts | 82° |
| 2026-05-06 15:33 | 52.01384 | -0.81436 | 13435 ft | 316 kts | 82° |
| 2026-05-06 15:34 | 52.01639 | -0.77900 | 13203 ft | 315 kts | 79° |
| 2026-05-06 15:34 | 52.02198 | -0.74497 | 12972 ft | 311 kts | 65° |
| 2026-05-06 15:34 | 52.03224 | -0.71460 | 12743 ft | 304 kts | 51° |
| 2026-05-06 15:34 | 52.04616 | -0.68915 | 12531 ft | 301 kts | 42° |
| 2026-05-06 15:35 | 52.06085 | -0.66498 | 12305 ft | 300 kts | 43° |
| 2026-05-06 15:35 | 52.07542 | -0.64088 | 12088 ft | 298 kts | 43° |
| 2026-05-06 15:35 | 52.08991 | -0.61685 | 11871 ft | 297 kts | 43° |
| 2026-05-06 15:35 | 52.10434 | -0.59288 | 11655 ft | 296 kts | 43° |
| 2026-05-06 15:36 | 52.11869 | -0.56902 | 11445 ft | 294 kts | 43° |
| 2026-05-06 15:36 | 52.13298 | -0.54526 | 11221 ft | 293 kts | 43° |
| 2026-05-06 15:36 | 52.14720 | -0.52159 | 11000 ft | 292 kts | 43° |
| 2026-05-06 15:36 | 52.16138 | -0.49795 | 10798 ft | 291 kts | 43° |
| 2026-05-06 15:37 | 52.17546 | -0.47442 | 10585 ft | 290 kts | 44° |
| 2026-05-06 15:37 | 52.18674 | -0.44723 | 10362 ft | 293 kts | 67° |
| 2026-05-06 15:37 | 52.18975 | -0.41450 | 10123 ft | 296 kts | 94° |
| 2026-05-06 15:37 | 52.18382 | -0.38301 | 9885 ft | 298 kts | 120° |
| 2026-05-06 15:38 | 52.16993 | -0.35837 | 9616 ft | 298 kts | 146° |
| 2026-05-06 15:38 | 52.15097 | -0.34600 | 9342 ft | 295 kts | 173° |
| 2026-05-06 15:38 | 52.13023 | -0.34404 | 9080 ft | 294 kts | 180° |
| 2026-05-06 15:38 | 52.11011 | -0.34393 | 8815 ft | 292 kts | 181° |
| 2026-05-06 15:39 | 52.08985 | -0.34415 | 8552 ft | 290 kts | 181° |
| 2026-05-06 15:39 | 52.06971 | -0.34452 | 8290 ft | 288 kts | 181° |
| 2026-05-06 15:39 | 52.04974 | -0.34497 | 8052 ft | 286 kts | 181° |
| 2026-05-06 15:39 | 52.02989 | -0.34552 | 7992 ft | 285 kts | 181° |
| 2026-05-06 15:40 | 52.00999 | -0.34608 | 7799 ft | 286 kts | 181° |
| 2026-05-06 15:40 | 51.99020 | -0.34671 | 7497 ft | 283 kts | 181° |
| 2026-05-06 15:40 | 51.97061 | -0.34786 | 7190 ft | 281 kts | 187° |
| 2026-05-06 15:40 | 51.95254 | -0.35840 | 6897 ft | 278 kts | 215° |
| 2026-05-06 15:41 | 51.93960 | -0.38107 | 6591 ft | 275 kts | 243° |
| 2026-05-06 15:41 | 51.93376 | -0.41037 | 6294 ft | 274 kts | 259° |
| 2026-05-06 15:41 | 51.93027 | -0.44065 | 5979 ft | 273 kts | 261° |
| 2026-05-06 15:41 | 51.92697 | -0.47082 | 5662 ft | 271 kts | 261° |
| 2026-05-06 15:42 | 51.92365 | -0.50074 | 5348 ft | 269 kts | 261° |
| 2026-05-06 15:42 | 51.92030 | -0.53051 | 5005 ft | 268 kts | 261° |
| 2026-05-06 15:42 | 51.91692 | -0.56003 | 4613 ft | 266 kts | 261° |
| 2026-05-06 15:42 | 51.91342 | -0.58942 | 4213 ft | 265 kts | 261° |
| 2026-05-06 15:43 | 51.90980 | -0.61859 | 3828 ft | 264 kts | 261° |
| 2026-05-06 15:43 | 51.90609 | -0.64768 | 3439 ft | 263 kts | 261° |
| 2026-05-06 15:43 | 51.90235 | -0.67665 | 3059 ft | 262 kts | 261° |
| 2026-05-06 15:43 | 51.89862 | -0.70538 | 2999 ft | 261 kts | 261° |
| 2026-05-06 15:44 | 51.89489 | -0.73430 | 3006 ft | 263 kts | 261° |
| 2026-05-06 15:44 | 51.89064 | -0.76304 | 3002 ft | 264 kts | 250° |
| 2026-05-06 15:44 | 51.88009 | -0.78726 | 3002 ft | 266 kts | 220° |
| 2026-05-06 15:44 | 51.86419 | -0.79987 | 3000 ft | 248 kts | 189° |
| 2026-05-06 15:45 | 51.84748 | -0.79764 | 3011 ft | 253 kts | 156° |
| 2026-05-06 15:45 | 51.83263 | -0.78167 | 3004 ft | 260 kts | 133° |
| 2026-05-06 15:45 | 51.82177 | -0.75851 | 3005 ft | 258 kts | 114° |
| 2026-05-06 15:45 | 51.81625 | -0.73126 | 3006 ft | 255 kts | 94° |
| 2026-05-06 15:46 | 51.81646 | -0.70287 | 3005 ft | 251 kts | 77° |
| 2026-05-06 15:46 | 51.82078 | -0.67654 | 3005 ft | 233 kts | 71° |
| 2026-05-06 15:46 | 51.82508 | -0.65225 | 3000 ft | 218 kts | 71° |
| 2026-05-06 15:46 | 51.82921 | -0.62885 | 3010 ft | 212 kts | 71° |
| 2026-05-06 15:47 | 51.83312 | -0.60656 | 2998 ft | 200 kts | 71° |
| 2026-05-06 15:47 | 51.83680 | -0.58553 | 3028 ft | 188 kts | 70° |
| 2026-05-06 15:47 | 51.84026 | -0.56581 | 2884 ft | 179 kts | 70° |
| 2026-05-06 15:47 | 51.84360 | -0.54674 | 2668 ft | 174 kts | 70° |
| 2026-05-06 15:48 | 51.84680 | -0.52839 | 2443 ft | 162 kts | 69° |
| 2026-05-06 15:48 | 51.84968 | -0.51179 | 2224 ft | 147 kts | 69° |
| 2026-05-06 15:48 | 51.85236 | -0.49658 | 2029 ft | 138 kts | 68° |
| 2026-05-06 15:48 | 51.85499 | -0.48176 | 1818 ft | 137 kts | 67° |
| 2026-05-06 15:49 | 51.85771 | -0.46705 | 1646 ft | 136 kts | 68° |
| 2026-05-06 15:49 | 51.86020 | -0.45233 | 1473 ft | 134 kts | 68° |
| 2026-05-06 15:49 | 51.86264 | -0.43783 | 1257 ft | 135 kts | 69° |
| 2026-05-06 15:49 | 51.86523 | -0.42317 | 1063 ft | 136 kts | 66° |
| 2026-05-06 15:50 | 51.86770 | -0.40856 | 871 ft | 134 kts | 69° |
| 2026-05-06 15:50 | 51.87031 | -0.39403 | 715 ft | 137 kts | 70° |
| 2026-05-06 15:50 | 51.87274 | -0.37937 | 532 ft | 128 kts | 71° |
| 2026-05-06 15:50 | 51.87466 | -0.36885 | 522 ft | 66 kts | 78° |
| 2026-05-06 15:51 | 51.87567 | -0.36241 | 520 ft | 54 kts | 76° |
| 2026-05-06 15:51 | 51.87634 | -0.35918 | 518 ft | 13 kts | 60° |
| 2026-05-06 15:51 | 51.87698 | -0.35938 | 519 ft | 8 kts | 320° |
| 2026-05-06 15:51 | 51.87747 | -0.35968 | 519 ft | 7 kts | 339° |
| 2026-05-06 15:52 | 51.87777 | -0.36026 | 519 ft | 7 kts | 291° |
| 2026-05-06 15:52 | 51.87779 | -0.36107 | 519 ft | 7 kts | 259° |
| 2026-05-06 15:52 | 51.87767 | -0.36183 | 519 ft | 6 kts | 254° |
| 2026-05-06 15:52 | 51.87763 | -0.36202 | 519 ft | 0 kts | 255° |
| 2026-05-06 15:53 | 51.87760 | -0.36222 | 519 ft | 6 kts | 255° |
| 2026-05-06 15:53 | 51.87742 | -0.36332 | 520 ft | 14 kts | 255° |
| 2026-05-06 15:53 | 51.87708 | -0.36523 | 520 ft | 20 kts | 254° |
| 2026-05-06 15:54 | 51.87671 | -0.36728 | 521 ft | 17 kts | 253° |
| 2026-05-06 15:54 | 51.87651 | -0.36849 | 521 ft | 14 kts | 257° |
| 2026-05-06 15:54 | 51.87626 | -0.37021 | 521 ft | 15 kts | 256° |
| 2026-05-06 15:54 | 51.87597 | -0.37181 | 521 ft | 15 kts | 253° |
| 2026-05-06 15:55 | 51.87580 | -0.37344 | 522 ft | 16 kts | 274° |
| 2026-05-06 15:55 | 51.87663 | -0.37490 | 522 ft | 20 kts | 319° |
| 2026-05-06 15:55 | 51.87738 | -0.37696 | 522 ft | 23 kts | 296° |
| 2026-05-06 15:55 | 51.87804 | -0.37913 | 523 ft | 18 kts | 302° |
| 2026-05-06 15:56 | 51.87898 | -0.38008 | 523 ft | 15 kts | 353° |
| 2026-05-06 15:56 | 51.87993 | -0.37965 | 522 ft | 13 kts | 38° |
| 2026-05-06 15:56 | 51.88010 | -0.37911 | 522 ft | 5 kts | 110° |
| 2026-05-06 15:56 | 51.87993 | -0.37868 | 522 ft | 0 kts | 128° |
| 2026-05-06 15:57 | 51.87989 | -0.37860 | 522 ft | 0 kts | 128° |